Airfield :
LOGIN :

Register | Disclaimer

   EN    FR    IT 

 










Legend :    VFR   Marginal VFR   IFR   Intensive IFR   Very Intensive IFR
Visi :
Ceiling :
>= 8 km
>= 3000ft
5 to 8 km
1000 to 3000 ft
1500m to 5 km
500 to 1000 ft
800 to 1500m
200 to 500 ft
< 800m
< 200 ft
Symbols :   Thunderstorms  Fog  Heavy snow  Heavy precipitations  Wind > 20 kt
SIGMETs :     Misc.  Thunderstorms  Icing  Turbulence  Mountain Waves  Volcanic Ashes







- Airport Elevation : 32 ft
- IATA code : LKZ


EGUL - RAF Lakenheath

CURRENT METAR :
  • 240712Z AUTO 20008KT 9999 SCT014 15/15 A2998 RMK AO2 SLP155 $

EXPIRED METARs :
  • 240701Z AUTO 21010KT 9999 OVC013 15/15 A2998 RMK AO2 CIG 010V015 CIG 012 RWY06 SLP155 $
  • 240556Z AUTO 22011KT 9999 OVC010 15/15 A2999 RMK AO2 SLP159 T01470147 10150 20129 55007 $
  • 240456Z AUTO 22009KT 9999 OVC010 14/14 A2998 RMK AO2 SLP155 T01420142 $

TAF TAF EGUL
Valid from the 24 at 04:00 until the 25 at 10:00 UTC


240400Z 2404/2510 24012KT 9999 OVC010 QNH2998INS
TEMPO 2404/2409 BKN009
BECMG 2408/2409 23015G25KT 8000 -RA OVC015 QNH2996INS
BECMG 2415/2416 22015G25KT 9999 NSW BKN020 QNH2994INS
BECMG 2508/2509 26012KT 9999 SCT025 QNH3001INS TX17/2413Z TN11/2407Z
No reported NOTAMs for that airfield.



MET'MAP, your aeronautical weather chart ! - Copyright ORBIFLY December 2007 - Disclaimer

ORBIFLY MET'MAP TEAM :

Programming & Development : Alexandra Zaïnal
Concept & Development : Baudouin d'Aumeries
Co-Development & Prog : Marc-Olivier Méhu
Technical & hardware support : Manuel Goepfert

Contact : metmap@orbifly.com




SOURCES & CREDITS :

   NOAA